ESR147 ZBAD-RKSI
Flight info
| Callsign | ESR147 |
|---|---|
| Flight time | 1h 14m |
| Altitude | 29100 |
| Route | MUGLO W34 VAPGU W100 ORAVA W201 UNSEK A326 DONVO G597 AGAVO/N0462F290 Y644 REBIT |
| Aircraft | B738/M-SDE2E3FGHIRWXY/LB1 |
Departure
| Time | 2026-05-05 01:33 |
|---|---|
| Airport | Beijing Daxing International Airport (ZBAD) |
Arrival
| Time | 2026-05-05 02:47 |
|---|---|
| Airport | Incheon International Airport (RKSI) |
| Time | Latitude | Longitude | Altitude | Speed | Heading |
|---|---|---|---|---|---|
| 2026-05-05 01:08 | 39.50647 | 116.40656 | 90 ft | 0 kts | 288° |
| 2026-05-05 01:22 | 39.50647 | 116.40657 | 90 ft | 0 kts | 288° |
| 2026-05-05 01:23 | 39.50643 | 116.40675 | 90 ft | 2 kts | 288° |
| 2026-05-05 01:23 | 39.50638 | 116.40693 | 90 ft | 2 kts | 288° |
| 2026-05-05 01:23 | 39.50634 | 116.40711 | 90 ft | 2 kts | 288° |
| 2026-05-05 01:23 | 39.50629 | 116.40730 | 90 ft | 2 kts | 288° |
| 2026-05-05 01:24 | 39.50626 | 116.40743 | 90 ft | 0 kts | 288° |
| 2026-05-05 01:24 | 39.50622 | 116.40760 | 90 ft | 2 kts | 272° |
| 2026-05-05 01:24 | 39.50623 | 116.40779 | 90 ft | 2 kts | 259° |
| 2026-05-05 01:24 | 39.50627 | 116.40798 | 90 ft | 2 kts | 244° |
| 2026-05-05 01:25 | 39.50633 | 116.40810 | 90 ft | 0 kts | 233° |
| 2026-05-05 01:25 | 39.50637 | 116.40816 | 90 ft | 0 kts | 231° |
| 2026-05-05 01:26 | 39.50636 | 116.40816 | 90 ft | 0 kts | 231° |
| 2026-05-05 01:26 | 39.50620 | 116.40793 | 90 ft | 6 kts | 222° |
| 2026-05-05 01:27 | 39.50566 | 116.40740 | 90 ft | 12 kts | 214° |
| 2026-05-05 01:27 | 39.50498 | 116.40672 | 90 ft | 11 kts | 242° |
| 2026-05-05 01:27 | 39.50484 | 116.40569 | 90 ft | 13 kts | 261° |
| 2026-05-05 01:27 | 39.50501 | 116.40440 | 90 ft | 17 kts | 317° |
| 2026-05-05 01:28 | 39.50595 | 116.40346 | 90 ft | 16 kts | 323° |
| 2026-05-05 01:28 | 39.50646 | 116.40237 | 90 ft | 14 kts | 263° |
| 2026-05-05 01:28 | 39.50667 | 116.40129 | 90 ft | 13 kts | 345° |
| 2026-05-05 01:28 | 39.50766 | 116.40112 | 90 ft | 17 kts | 352° |
| 2026-05-05 01:29 | 39.50911 | 116.40089 | 90 ft | 23 kts | 353° |
| 2026-05-05 01:29 | 39.51096 | 116.40059 | 90 ft | 29 kts | 352° |
| 2026-05-05 01:29 | 39.51305 | 116.40027 | 90 ft | 29 kts | 353° |
| 2026-05-05 01:29 | 39.51502 | 116.39996 | 90 ft | 27 kts | 353° |
| 2026-05-05 01:30 | 39.51691 | 116.39966 | 90 ft | 26 kts | 353° |
| 2026-05-05 01:30 | 39.51802 | 116.39861 | 90 ft | 22 kts | 265° |
| 2026-05-05 01:30 | 39.51785 | 116.39662 | 90 ft | 21 kts | 263° |
| 2026-05-05 01:30 | 39.51767 | 116.39480 | 90 ft | 19 kts | 263° |
| 2026-05-05 01:31 | 39.51751 | 116.39309 | 90 ft | 18 kts | 263° |
| 2026-05-05 01:31 | 39.51736 | 116.39146 | 90 ft | 18 kts | 263° |
| 2026-05-05 01:31 | 39.51719 | 116.38971 | 90 ft | 20 kts | 262° |
| 2026-05-05 01:31 | 39.51702 | 116.38793 | 90 ft | 18 kts | 262° |
| 2026-05-05 01:32 | 39.51604 | 116.38751 | 90 ft | 17 kts | 173° |
| 2026-05-05 01:32 | 39.51335 | 116.38797 | 90 ft | 75 kts | 173° |
| 2026-05-05 01:32 | 39.50555 | 116.38917 | 90 ft | 147 kts | 173° |
| 2026-05-05 01:32 | 39.49425 | 116.39086 | 651 ft | 164 kts | 173° |
| 2026-05-05 01:33 | 39.48324 | 116.39246 | 1464 ft | 170 kts | 173° |
| 2026-05-05 01:33 | 39.47172 | 116.39442 | 2273 ft | 167 kts | 174° |
| 2026-05-05 01:33 | 39.46026 | 116.39756 | 2878 ft | 175 kts | 154° |
| 2026-05-05 01:33 | 39.45226 | 116.40932 | 3427 ft | 189 kts | 115° |
| 2026-05-05 01:34 | 39.44867 | 116.42654 | 3871 ft | 207 kts | 106° |
| 2026-05-05 01:34 | 39.44498 | 116.44550 | 4269 ft | 228 kts | 108° |
| 2026-05-05 01:34 | 39.44043 | 116.46594 | 4777 ft | 244 kts | 110° |
| 2026-05-05 01:34 | 39.43546 | 116.48739 | 5266 ft | 262 kts | 110° |
| 2026-05-05 01:35 | 39.43011 | 116.51052 | 5892 ft | 275 kts | 110° |
| 2026-05-05 01:35 | 39.42447 | 116.53501 | 6376 ft | 293 kts | 110° |
| 2026-05-05 01:35 | 39.41866 | 116.56046 | 7187 ft | 298 kts | 109° |
| 2026-05-05 01:35 | 39.41284 | 116.58603 | 8080 ft | 299 kts | 110° |
| 2026-05-05 01:36 | 39.40705 | 116.61139 | 8922 ft | 300 kts | 109° |
| 2026-05-05 01:36 | 39.40113 | 116.63722 | 9799 ft | 301 kts | 109° |
| 2026-05-05 01:36 | 39.39509 | 116.66349 | 10459 ft | 310 kts | 110° |
| 2026-05-05 01:36 | 39.38876 | 116.69078 | 10894 ft | 326 kts | 110° |
| 2026-05-05 01:37 | 39.38219 | 116.71915 | 11335 ft | 342 kts | 109° |
| 2026-05-05 01:37 | 39.37524 | 116.74915 | 11773 ft | 357 kts | 109° |
| 2026-05-05 01:37 | 39.36797 | 116.78062 | 12177 ft | 372 kts | 109° |
| 2026-05-05 01:37 | 39.36039 | 116.81336 | 12576 ft | 388 kts | 108° |
| 2026-05-05 01:38 | 39.35252 | 116.84729 | 13013 ft | 400 kts | 108° |
| 2026-05-05 01:38 | 39.34461 | 116.88145 | 13710 ft | 405 kts | 108° |
| 2026-05-05 01:38 | 39.33649 | 116.91645 | 14461 ft | 409 kts | 108° |
| 2026-05-05 01:38 | 39.32828 | 116.95180 | 15188 ft | 413 kts | 108° |
| 2026-05-05 01:39 | 39.32010 | 116.98693 | 15903 ft | 416 kts | 107° |
| 2026-05-05 01:39 | 39.31175 | 117.02277 | 16592 ft | 420 kts | 107° |
| 2026-05-05 01:39 | 39.30328 | 117.05900 | 17246 ft | 424 kts | 107° |
| 2026-05-05 01:39 | 39.29474 | 117.09553 | 17869 ft | 429 kts | 106° |
| 2026-05-05 01:40 | 39.28614 | 117.13223 | 18492 ft | 433 kts | 106° |
| 2026-05-05 01:40 | 39.27733 | 117.16975 | 19097 ft | 437 kts | 106° |
| 2026-05-05 01:40 | 39.26855 | 117.20705 | 19686 ft | 441 kts | 106° |
| 2026-05-05 01:40 | 39.25954 | 117.24519 | 20242 ft | 446 kts | 106° |
| 2026-05-05 01:41 | 39.25059 | 117.28310 | 20844 ft | 448 kts | 106° |
| 2026-05-05 01:41 | 39.24142 | 117.32186 | 21346 ft | 453 kts | 106° |
| 2026-05-05 01:41 | 39.23217 | 117.36084 | 21883 ft | 457 kts | 106° |
| 2026-05-05 01:41 | 39.22293 | 117.39979 | 22391 ft | 461 kts | 105° |
| 2026-05-05 01:42 | 39.21352 | 117.43935 | 22900 ft | 464 kts | 105° |
| 2026-05-05 01:42 | 39.20399 | 117.47939 | 23407 ft | 468 kts | 105° |
| 2026-05-05 01:42 | 39.19449 | 117.51920 | 23897 ft | 472 kts | 105° |
| 2026-05-05 01:42 | 39.18478 | 117.55984 | 24400 ft | 475 kts | 105° |
| 2026-05-05 01:43 | 39.17512 | 117.60025 | 24895 ft | 478 kts | 105° |
| 2026-05-05 01:43 | 39.16523 | 117.64150 | 25349 ft | 482 kts | 105° |
| 2026-05-05 01:43 | 39.15527 | 117.68298 | 25797 ft | 486 kts | 106° |
| 2026-05-05 01:43 | 39.14536 | 117.72417 | 26242 ft | 489 kts | 106° |
| 2026-05-05 01:44 | 39.13526 | 117.76608 | 26792 ft | 489 kts | 106° |
| 2026-05-05 01:44 | 39.12522 | 117.80764 | 27574 ft | 484 kts | 105° |
| 2026-05-05 01:44 | 39.11533 | 117.84847 | 28156 ft | 483 kts | 105° |
| 2026-05-05 01:44 | 39.10533 | 117.88967 | 28743 ft | 481 kts | 105° |
| 2026-05-05 01:45 | 39.09531 | 117.93094 | 28909 ft | 485 kts | 105° |
| 2026-05-05 01:45 | 39.08534 | 117.97198 | 28917 ft | 483 kts | 105° |
| 2026-05-05 01:45 | 39.06606 | 118.05444 | 28922 ft | 479 kts | 103° |
| 2026-05-05 01:46 | 39.05174 | 118.13716 | 28925 ft | 476 kts | 99° |
| 2026-05-05 01:46 | 39.03926 | 118.22097 | 28925 ft | 476 kts | 98° |
| 2026-05-05 01:47 | 39.02673 | 118.30473 | 28927 ft | 477 kts | 98° |
| 2026-05-05 01:47 | 39.01373 | 118.38851 | 28929 ft | 478 kts | 99° |
| 2026-05-05 01:48 | 39.00055 | 118.47143 | 28930 ft | 477 kts | 99° |
| 2026-05-05 01:48 | 38.98715 | 118.55460 | 28933 ft | 476 kts | 99° |
| 2026-05-05 01:49 | 38.97433 | 118.63359 | 28935 ft | 475 kts | 99° |
| 2026-05-05 01:49 | 38.96132 | 118.71326 | 28938 ft | 474 kts | 100° |
| 2026-05-05 01:50 | 38.94781 | 118.79563 | 28941 ft | 474 kts | 100° |
| 2026-05-05 01:50 | 38.93419 | 118.87837 | 28939 ft | 475 kts | 100° |
| 2026-05-05 01:51 | 38.92054 | 118.96091 | 28943 ft | 475 kts | 100° |
| 2026-05-05 01:51 | 38.90676 | 119.04383 | 28946 ft | 474 kts | 100° |
| 2026-05-05 01:52 | 38.89296 | 119.12639 | 28951 ft | 473 kts | 100° |
| 2026-05-05 01:52 | 38.87913 | 119.20873 | 28953 ft | 474 kts | 100° |
| 2026-05-05 01:53 | 38.86525 | 119.29098 | 28954 ft | 472 kts | 100° |
| 2026-05-05 01:53 | 38.85135 | 119.37302 | 28961 ft | 471 kts | 100° |
| 2026-05-05 01:54 | 38.83746 | 119.45457 | 28964 ft | 472 kts | 100° |
| 2026-05-05 01:54 | 38.82345 | 119.53650 | 28968 ft | 472 kts | 100° |
| 2026-05-05 01:55 | 38.80935 | 119.61858 | 28973 ft | 471 kts | 99° |
| 2026-05-05 01:55 | 38.79523 | 119.70042 | 28968 ft | 470 kts | 101° |
| 2026-05-05 01:56 | 38.78111 | 119.78191 | 28968 ft | 470 kts | 100° |
| 2026-05-05 01:56 | 38.76705 | 119.86324 | 28974 ft | 469 kts | 100° |
| 2026-05-05 01:57 | 38.75240 | 119.94475 | 28974 ft | 471 kts | 104° |
| 2026-05-05 01:57 | 38.73114 | 120.02369 | 28972 ft | 473 kts | 109° |
| 2026-05-05 01:58 | 38.70636 | 120.10135 | 28982 ft | 473 kts | 110° |
| 2026-05-05 01:58 | 38.68098 | 120.17896 | 28981 ft | 473 kts | 110° |
| 2026-05-05 01:59 | 38.65585 | 120.25633 | 28984 ft | 472 kts | 110° |
| 2026-05-05 01:59 | 38.63096 | 120.33358 | 28992 ft | 470 kts | 110° |
| 2026-05-05 02:00 | 38.60621 | 120.41065 | 28993 ft | 470 kts | 110° |
| 2026-05-05 02:00 | 38.58150 | 120.48762 | 28992 ft | 471 kts | 110° |
| 2026-05-05 02:01 | 38.55937 | 120.56589 | 28992 ft | 469 kts | 103° |
| 2026-05-05 02:01 | 38.54413 | 120.64650 | 28999 ft | 467 kts | 99° |
| 2026-05-05 02:02 | 38.53120 | 120.72826 | 28995 ft | 468 kts | 99° |
| 2026-05-05 02:02 | 38.51862 | 120.80907 | 28999 ft | 468 kts | 99° |
| 2026-05-05 02:03 | 38.50568 | 120.89033 | 29003 ft | 468 kts | 99° |
| 2026-05-05 02:03 | 38.49250 | 120.97137 | 29005 ft | 468 kts | 100° |
| 2026-05-05 02:04 | 38.47916 | 121.05238 | 29007 ft | 467 kts | 99° |
| 2026-05-05 02:04 | 38.46576 | 121.13310 | 29011 ft | 467 kts | 100° |
| 2026-05-05 02:05 | 38.45233 | 121.21423 | 29017 ft | 467 kts | 99° |
| 2026-05-05 02:05 | 38.43918 | 121.29527 | 29031 ft | 467 kts | 99° |
| 2026-05-05 02:06 | 38.42620 | 121.37609 | 29031 ft | 468 kts | 99° |
| 2026-05-05 02:06 | 38.41313 | 121.45712 | 29033 ft | 467 kts | 99° |
| 2026-05-05 02:07 | 38.39984 | 121.53808 | 29039 ft | 467 kts | 99° |
| 2026-05-05 02:07 | 38.38642 | 121.61852 | 29035 ft | 467 kts | 99° |
| 2026-05-05 02:08 | 38.37286 | 121.69930 | 29041 ft | 467 kts | 100° |
| 2026-05-05 02:08 | 38.35923 | 121.78021 | 29047 ft | 467 kts | 100° |
| 2026-05-05 02:09 | 38.34563 | 121.86060 | 29057 ft | 468 kts | 101° |
| 2026-05-05 02:09 | 38.33187 | 121.94160 | 29060 ft | 468 kts | 100° |
| 2026-05-05 02:10 | 38.31814 | 122.02210 | 29060 ft | 469 kts | 101° |
| 2026-05-05 02:10 | 38.30429 | 122.10296 | 29064 ft | 468 kts | 101° |
| 2026-05-05 02:11 | 38.29042 | 122.18357 | 29064 ft | 468 kts | 101° |
| 2026-05-05 02:11 | 38.27657 | 122.26411 | 29070 ft | 468 kts | 100° |
| 2026-05-05 02:12 | 38.25841 | 122.38573 | 29071 ft | 467 kts | 99° |
| 2026-05-05 02:13 | 38.23726 | 122.46385 | 29071 ft | 471 kts | 120° |
| 2026-05-05 02:13 | 38.19527 | 122.52787 | 29072 ft | 474 kts | 133° |
| 2026-05-05 02:14 | 38.14893 | 122.58698 | 29076 ft | 473 kts | 134° |
| 2026-05-05 02:14 | 38.10209 | 122.64546 | 29086 ft | 474 kts | 134° |
| 2026-05-05 02:15 | 38.05559 | 122.70432 | 29085 ft | 474 kts | 134° |
| 2026-05-05 02:15 | 38.00945 | 122.76372 | 29088 ft | 473 kts | 134° |
| 2026-05-05 02:16 | 37.96352 | 122.82315 | 29095 ft | 473 kts | 134° |
| 2026-05-05 02:16 | 37.91754 | 122.88264 | 29103 ft | 472 kts | 134° |
| 2026-05-05 02:17 | 37.87157 | 122.94202 | 29114 ft | 472 kts | 134° |
| 2026-05-05 02:17 | 37.82578 | 123.00105 | 29012 ft | 470 kts | 134° |
| 2026-05-05 02:18 | 37.77970 | 123.06032 | 29022 ft | 474 kts | 134° |
| 2026-05-05 02:18 | 37.73372 | 123.11935 | 29031 ft | 473 kts | 134° |
| 2026-05-05 02:19 | 37.68737 | 123.17873 | 29035 ft | 473 kts | 134° |
| 2026-05-05 02:19 | 37.64140 | 123.23750 | 29037 ft | 472 kts | 134° |
| 2026-05-05 02:20 | 37.59530 | 123.29635 | 29041 ft | 472 kts | 134° |
| 2026-05-05 02:20 | 37.55096 | 123.35628 | 29049 ft | 472 kts | 128° |
| 2026-05-05 02:21 | 37.51089 | 123.42165 | 29053 ft | 471 kts | 125° |
| 2026-05-05 02:21 | 37.47233 | 123.48836 | 29063 ft | 472 kts | 124° |
| 2026-05-05 02:22 | 37.43369 | 123.55473 | 29066 ft | 471 kts | 125° |
| 2026-05-05 02:22 | 37.39494 | 123.62029 | 29076 ft | 469 kts | 125° |
| 2026-05-05 02:23 | 37.35571 | 123.68600 | 29080 ft | 470 kts | 126° |
| 2026-05-05 02:23 | 37.31654 | 123.75124 | 29078 ft | 469 kts | 126° |
| 2026-05-05 02:24 | 37.27721 | 123.81657 | 29084 ft | 470 kts | 126° |
| 2026-05-05 02:24 | 37.23793 | 123.88168 | 29077 ft | 469 kts | 126° |
| 2026-05-05 02:25 | 37.19955 | 123.94753 | 29082 ft | 468 kts | 121° |
| 2026-05-05 02:25 | 37.17490 | 124.02225 | 29088 ft | 466 kts | 101° |
| 2026-05-05 02:26 | 37.16950 | 124.10262 | 29089 ft | 462 kts | 88° |
| 2026-05-05 02:26 | 37.17165 | 124.18305 | 29090 ft | 461 kts | 85° |
| 2026-05-05 02:27 | 37.17529 | 124.26312 | 29084 ft | 461 kts | 85° |
| 2026-05-05 02:27 | 37.17818 | 124.34308 | 29089 ft | 462 kts | 86° |
| 2026-05-05 02:28 | 37.18037 | 124.42307 | 29096 ft | 462 kts | 86° |
| 2026-05-05 02:28 | 37.18231 | 124.50381 | 29051 ft | 464 kts | 86° |
| 2026-05-05 02:28 | 37.18322 | 124.54375 | 28798 ft | 464 kts | 86° |
| 2026-05-05 02:29 | 37.18412 | 124.58424 | 28535 ft | 462 kts | 86° |
| 2026-05-05 02:29 | 37.18499 | 124.62412 | 28273 ft | 462 kts | 86° |
| 2026-05-05 02:29 | 37.18586 | 124.66439 | 28010 ft | 463 kts | 87° |
| 2026-05-05 02:29 | 37.18673 | 124.70452 | 27748 ft | 464 kts | 87° |
| 2026-05-05 02:30 | 37.18759 | 124.74541 | 27480 ft | 465 kts | 87° |
| 2026-05-05 02:30 | 37.18843 | 124.78594 | 27217 ft | 465 kts | 87° |
| 2026-05-05 02:30 | 37.18927 | 124.82641 | 26953 ft | 465 kts | 87° |
| 2026-05-05 02:30 | 37.19009 | 124.86715 | 26662 ft | 463 kts | 87° |
| 2026-05-05 02:31 | 37.19087 | 124.90696 | 25957 ft | 462 kts | 87° |
| 2026-05-05 02:31 | 37.19165 | 124.94721 | 25178 ft | 460 kts | 87° |
| 2026-05-05 02:31 | 37.19240 | 124.98664 | 24451 ft | 457 kts | 87° |
| 2026-05-05 02:31 | 37.19314 | 125.02636 | 23743 ft | 454 kts | 87° |
| 2026-05-05 02:32 | 37.19386 | 125.06575 | 23024 ft | 452 kts | 87° |
| 2026-05-05 02:32 | 37.19456 | 125.10449 | 22316 ft | 449 kts | 87° |
| 2026-05-05 02:32 | 37.19526 | 125.14335 | 21600 ft | 446 kts | 88° |
| 2026-05-05 02:32 | 37.19594 | 125.18206 | 20876 ft | 443 kts | 88° |
| 2026-05-05 02:33 | 37.19661 | 125.22056 | 20151 ft | 440 kts | 88° |
| 2026-05-05 02:33 | 37.19724 | 125.25830 | 19442 ft | 437 kts | 88° |
| 2026-05-05 02:33 | 37.19787 | 125.29630 | 18720 ft | 433 kts | 88° |
| 2026-05-05 02:33 | 37.19849 | 125.33350 | 18004 ft | 430 kts | 88° |
| 2026-05-05 02:34 | 37.19913 | 125.37096 | 17276 ft | 427 kts | 88° |
| 2026-05-05 02:34 | 37.19979 | 125.40749 | 16679 ft | 420 kts | 88° |
| 2026-05-05 02:34 | 37.20048 | 125.44388 | 16181 ft | 412 kts | 88° |
| 2026-05-05 02:34 | 37.20118 | 125.47926 | 15688 ft | 404 kts | 88° |
| 2026-05-05 02:35 | 37.20189 | 125.51377 | 15230 ft | 395 kts | 88° |
| 2026-05-05 02:35 | 37.20262 | 125.54775 | 15125 ft | 382 kts | 88° |
| 2026-05-05 02:35 | 37.20332 | 125.58064 | 15120 ft | 382 kts | 88° |
| 2026-05-05 02:35 | 37.20405 | 125.61433 | 15117 ft | 385 kts | 87° |
| 2026-05-05 02:36 | 37.20751 | 125.64730 | 15049 ft | 387 kts | 75° |
| 2026-05-05 02:36 | 37.21705 | 125.67934 | 14620 ft | 387 kts | 66° |
| 2026-05-05 02:36 | 37.22903 | 125.70931 | 14113 ft | 381 kts | 63° |
| 2026-05-05 02:36 | 37.24152 | 125.73810 | 13629 ft | 378 kts | 62° |
| 2026-05-05 02:37 | 37.25434 | 125.76688 | 13144 ft | 377 kts | 62° |
| 2026-05-05 02:37 | 37.26745 | 125.79507 | 12641 ft | 377 kts | 57° |
| 2026-05-05 02:37 | 37.28429 | 125.82039 | 12160 ft | 378 kts | 46° |
| 2026-05-05 02:37 | 37.30331 | 125.84283 | 11663 ft | 377 kts | 43° |
| 2026-05-05 02:38 | 37.32289 | 125.86437 | 11169 ft | 375 kts | 41° |
| 2026-05-05 02:38 | 37.34267 | 125.88577 | 10981 ft | 369 kts | 41° |
| 2026-05-05 02:38 | 37.36214 | 125.90680 | 10965 ft | 373 kts | 41° |
| 2026-05-05 02:38 | 37.38184 | 125.92809 | 10768 ft | 372 kts | 41° |
| 2026-05-05 02:39 | 37.40123 | 125.94907 | 10398 ft | 364 kts | 41° |
| 2026-05-05 02:39 | 37.41995 | 125.96935 | 10280 ft | 348 kts | 41° |
| 2026-05-05 02:39 | 37.43802 | 125.98894 | 10204 ft | 332 kts | 41° |
| 2026-05-05 02:39 | 37.45500 | 126.00738 | 10136 ft | 316 kts | 41° |
| 2026-05-05 02:40 | 37.47123 | 126.02504 | 10086 ft | 302 kts | 41° |
| 2026-05-05 02:40 | 37.48687 | 126.04208 | 9797 ft | 295 kts | 41° |
| 2026-05-05 02:40 | 37.50245 | 126.05905 | 9279 ft | 295 kts | 41° |
| 2026-05-05 02:40 | 37.51781 | 126.07585 | 8771 ft | 293 kts | 41° |
| 2026-05-05 02:41 | 37.53318 | 126.09270 | 8263 ft | 292 kts | 41° |
| 2026-05-05 02:41 | 37.54836 | 126.10941 | 7758 ft | 291 kts | 41° |
| 2026-05-05 02:41 | 37.56342 | 126.12605 | 7290 ft | 288 kts | 41° |
| 2026-05-05 02:41 | 37.57841 | 126.14265 | 6766 ft | 288 kts | 41° |
| 2026-05-05 02:42 | 37.59349 | 126.15946 | 6286 ft | 286 kts | 41° |
| 2026-05-05 02:42 | 37.60808 | 126.17606 | 5854 ft | 284 kts | 45° |
| 2026-05-05 02:42 | 37.61897 | 126.19642 | 5362 ft | 282 kts | 71° |
| 2026-05-05 02:42 | 37.62253 | 126.22054 | 4909 ft | 277 kts | 88° |
| 2026-05-05 02:43 | 37.62318 | 126.24435 | 4459 ft | 274 kts | 91° |
| 2026-05-05 02:43 | 37.62354 | 126.26825 | 3984 ft | 272 kts | 91° |
| 2026-05-05 02:43 | 37.62182 | 126.29165 | 3566 ft | 267 kts | 109° |
| 2026-05-05 02:43 | 37.61470 | 126.31290 | 3146 ft | 260 kts | 120° |
| 2026-05-05 02:44 | 37.60437 | 126.33099 | 2948 ft | 252 kts | 139° |
| 2026-05-05 02:44 | 37.59135 | 126.34425 | 2624 ft | 229 kts | 146° |
| 2026-05-05 02:44 | 37.57888 | 126.35553 | 2323 ft | 211 kts | 147° |
| 2026-05-05 02:44 | 37.56756 | 126.36579 | 2047 ft | 195 kts | 147° |
| 2026-05-05 02:45 | 37.55691 | 126.37534 | 1809 ft | 179 kts | 147° |
| 2026-05-05 02:45 | 37.54709 | 126.38409 | 1574 ft | 164 kts | 147° |
| 2026-05-05 02:45 | 37.53811 | 126.39211 | 1351 ft | 150 kts | 147° |
| 2026-05-05 02:45 | 37.52999 | 126.39934 | 1155 ft | 143 kts | 147° |
| 2026-05-05 02:46 | 37.52191 | 126.40655 | 961 ft | 141 kts | 147° |
| 2026-05-05 02:46 | 37.51368 | 126.41385 | 767 ft | 146 kts | 147° |
| 2026-05-05 02:46 | 37.50542 | 126.42120 | 570 ft | 142 kts | 146° |
| 2026-05-05 02:46 | 37.49734 | 126.42839 | 389 ft | 144 kts | 146° |
| 2026-05-05 02:47 | 37.48911 | 126.43555 | 199 ft | 138 kts | 146° |
| 2026-05-05 02:47 | 37.48141 | 126.44241 | 36 ft | 132 kts | 145° |
| 2026-05-05 02:47 | 37.47509 | 126.44804 | 28 ft | 82 kts | 146° |
| 2026-05-05 02:47 | 37.47167 | 126.45104 | 28 ft | 43 kts | 142° |
| 2026-05-05 02:48 | 37.46938 | 126.45309 | 28 ft | 38 kts | 142° |
| 2026-05-05 02:48 | 37.46720 | 126.45496 | 28 ft | 37 kts | 152° |
| 2026-05-05 02:48 | 37.46519 | 126.45590 | 28 ft | 14 kts | 172° |
| 2026-05-05 02:48 | 37.46449 | 126.45599 | 28 ft | 0 kts | 180° |
| 2026-05-05 02:50 | 37.46411 | 126.45600 | 28 ft | 11 kts | 173° |
| 2026-05-05 02:50 | 37.46289 | 126.45632 | 28 ft | 20 kts | 161° |
| 2026-05-05 02:51 | 37.46175 | 126.45723 | 28 ft | 18 kts | 144° |
| 2026-05-05 02:51 | 37.46068 | 126.45815 | 28 ft | 18 kts | 152° |
| 2026-05-05 02:51 | 37.45966 | 126.45743 | 28 ft | 19 kts | 233° |
| 2026-05-05 02:51 | 37.45889 | 126.45609 | 28 ft | 17 kts | 234° |
| 2026-05-05 02:52 | 37.45842 | 126.45525 | 28 ft | 7 kts | 233° |
| 2026-05-05 02:52 | 37.45836 | 126.45515 | 28 ft | 0 kts | 234° |
| 2026-05-05 02:52 | 37.45835 | 126.45512 | 28 ft | 0 kts | 244° |
| 2026-05-05 02:52 | 37.45840 | 126.45461 | 28 ft | 11 kts | 303° |
| 2026-05-05 02:53 | 37.45913 | 126.45380 | 28 ft | 14 kts | 325° |
| 2026-05-05 02:53 | 37.46008 | 126.45297 | 28 ft | 19 kts | 324° |
| 2026-05-05 02:53 | 37.46114 | 126.45200 | 28 ft | 18 kts | 324° |
| 2026-05-05 02:53 | 37.46198 | 126.45098 | 28 ft | 15 kts | 272° |
| 2026-05-05 02:54 | 37.46140 | 126.44974 | 28 ft | 16 kts | 229° |
| 2026-05-05 02:54 | 37.46037 | 126.44920 | 28 ft | 18 kts | 198° |
| 2026-05-05 02:54 | 37.45961 | 126.44803 | 28 ft | 16 kts | 235° |
| 2026-05-05 02:54 | 37.45890 | 126.44684 | 28 ft | 18 kts | 231° |
| 2026-05-05 02:55 | 37.45810 | 126.44544 | 28 ft | 21 kts | 235° |
| 2026-05-05 02:55 | 37.45722 | 126.44389 | 28 ft | 21 kts | 233° |
| 2026-05-05 02:55 | 37.45638 | 126.44241 | 28 ft | 18 kts | 233° |
| 2026-05-05 02:55 | 37.45589 | 126.44228 | 28 ft | 7 kts | 133° |
| 2026-05-05 02:56 | 37.45549 | 126.44268 | 28 ft | 6 kts | 144° |
| 2026-05-05 02:56 | 37.45538 | 126.44278 | 28 ft | 0 kts | 146° |